createdAt,value
2023-03-30T00:01:41.404Z,100630.69
2023-03-30T00:04:46.286Z,100631.59
2023-03-30T00:07:49.658Z,100633.28
2023-03-30T00:10:54.721Z,100628.09
2023-03-30T00:13:57.694Z,100626.63
2023-03-30T00:17:01.075Z,100624.75
2023-03-30T00:20:10.228Z,100621.31
2023-03-30T00:23:13.525Z,100612.38
2023-03-30T00:26:17.500Z,100611.63
2023-03-30T00:29:20.519Z,100610.16
2023-03-30T00:32:24.815Z,100605.16
2023-03-30T00:35:30.647Z,100593.00
2023-03-30T00:38:33.875Z,100593.19
2023-03-30T00:41:38.026Z,100589.59
2023-03-30T00:45:19.373Z,100587.94
2023-03-30T00:48:24.879Z,100584.03
2023-03-30T00:51:29.957Z,100573.56
2023-03-30T00:54:33.144Z,100568.69
2023-03-30T00:57:38.868Z,100559.53
2023-03-30T01:00:43.506Z,100553.41
2023-03-30T01:03:50.724Z,100550.69
2023-03-30T01:06:57.952Z,100543.19
2023-03-30T01:10:02.199Z,100539.06
2023-03-30T01:13:05.428Z,100525.94
2023-03-30T01:16:22.454Z,100517.44
2023-03-30T01:19:58.720Z,100502.69
2023-03-30T01:23:27.544Z,100502.69
2023-03-30T01:26:58.050Z,100504.56
2023-03-30T01:30:25.569Z,100492.72
2023-03-30T01:33:58.973Z,100479.22
2023-03-30T01:37:41.540Z,100465.59
2023-03-30T01:40:52.714Z,100467.13
2023-03-30T01:44:07.408Z,100455.19
2023-03-30T01:47:18.616Z,100458.19
2023-03-30T01:50:26.823Z,100440.75
2023-03-30T01:53:37.271Z,100445.09
2023-03-30T01:56:48.457Z,100440.56
2023-03-30T01:59:56.351Z,100440.34
2023-03-30T02:03:08.732Z,100431.63
2023-03-30T02:06:23.235Z,100441.09
2023-03-30T02:09:30.301Z,100439.09
2023-03-30T02:12:35.927Z,100448.66
2023-03-30T02:15:42.873Z,100439.03
2023-03-30T02:18:46.455Z,100419.06
2023-03-30T02:21:50.466Z,100415.53
2023-03-30T02:24:56.320Z,100418.84
2023-03-30T02:28:01.554Z,100422.09
2023-03-30T02:31:11.250Z,100411.91
2023-03-30T02:34:34.828Z,100403.41
2023-03-30T02:38:09.731Z,100399.25
2023-03-30T02:41:26.273Z,100401.41
2023-03-30T02:44:42.630Z,100387.59
2023-03-30T02:47:58.447Z,100382.41
2023-03-30T02:51:15.903Z,100375.16
2023-03-30T02:54:48.978Z,100362.28
2023-03-30T02:58:04.077Z,100365.00
2023-03-30T03:01:31.481Z,100363.72
2023-03-30T03:04:43.436Z,100351.06
2023-03-30T03:08:00.150Z,100341.72
2023-03-30T03:11:03.585Z,100338.00
2023-03-30T03:14:09.522Z,100331.97
2023-03-30T03:17:16.799Z,100326.66
2023-03-30T03:20:21.621Z,100320.75
2023-03-30T03:23:25.819Z,100321.38
2023-03-30T03:26:31.645Z,100330.31
2023-03-30T03:29:34.866Z,100318.25
2023-03-30T03:32:39.217Z,100315.34
2023-03-30T03:35:45.779Z,100314.75
2023-03-30T03:38:48.888Z,100302.25
2023-03-30T03:41:52.733Z,100306.63
2023-03-30T03:44:56.021Z,100296.97
2023-03-30T03:48:00.626Z,100292.72
2023-03-30T03:51:15.421Z,100288.13
2023-03-30T03:54:19.199Z,100289.09
2023-03-30T03:57:25.491Z,100276.00
2023-03-30T04:00:29.370Z,100264.06
2023-03-30T04:03:34.459Z,100253.47
2023-03-30T04:06:37.428Z,100257.81
2023-03-30T04:09:40.417Z,100260.09
2023-03-30T04:13:00.876Z,100245.25
2023-03-30T04:16:24.205Z,100237.69
2023-03-30T04:19:43.416Z,100231.78
2023-03-30T04:23:01.648Z,100225.84
2023-03-30T04:26:28.568Z,100223.88
2023-03-30T04:30:03.554Z,100221.28
2023-03-30T04:33:29.154Z,100230.63
2023-03-30T04:37:04.426Z,100218.59
2023-03-30T04:40:18.530Z,100220.75
2023-03-30T04:43:44.681Z,100223.47
2023-03-30T04:47:06.187Z,100212.97
2023-03-30T04:50:27.383Z,100217.13
2023-03-30T04:53:50.300Z,100220.53
2023-03-30T04:57:05.955Z,100217.31
2023-03-30T05:00:35.560Z,100207.69
2023-03-30T05:03:58.855Z,100215.56
2023-03-30T05:07:21.608Z,100221.69
2023-03-30T05:10:41.707Z,100213.69
2023-03-30T05:14:03.624Z,100196.44
2023-03-30T05:17:23.383Z,100186.78
2023-03-30T05:20:35.200Z,100185.97
2023-03-30T05:23:48.544Z,100174.31
2023-03-30T05:26:53.273Z,100164.53
2023-03-30T05:30:26.563Z,100152.88
2023-03-30T05:33:58.787Z,100145.59
2023-03-30T05:37:21.528Z,100140.19
2023-03-30T05:40:44.988Z,100157.22
2023-03-30T05:44:12.736Z,100171.84
2023-03-30T05:47:30.619Z,100171.59
2023-03-30T05:51:02.606Z,100167.34
2023-03-30T05:54:15.700Z,100160.31
2023-03-30T05:57:26.538Z,100149.91
2023-03-30T06:00:41.608Z,100158.41
2023-03-30T06:03:54.570Z,100160.75
2023-03-30T06:06:58.240Z,100155.47
2023-03-30T06:10:02.195Z,100143.81
2023-03-30T06:13:09.100Z,100135.69
2023-03-30T06:16:22.001Z,100130.13
2023-03-30T06:19:26.244Z,100129.91
2023-03-30T06:22:31.898Z,100122.72
2023-03-30T06:25:42.349Z,100124.97
2023-03-30T06:28:45.350Z,100122.16
2023-03-30T06:31:51.253Z,100118.25
2023-03-30T06:35:21.169Z,100110.59
2023-03-30T06:38:29.452Z,100117.81
2023-03-30T06:41:33.332Z,100124.22
2023-03-30T06:44:39.738Z,100120.56
2023-03-30T06:47:49.332Z,100131.19
2023-03-30T06:50:54.242Z,100130.47
2023-03-30T06:54:00.619Z,100135.47
2023-03-30T06:57:05.856Z,100123.16
2023-03-30T07:00:13.592Z,100115.84
2023-03-30T07:03:19.162Z,100111.34
2023-03-30T07:06:48.643Z,100106.88
2023-03-30T07:09:51.905Z,100111.00
2023-03-30T07:12:55.618Z,100103.06
2023-03-30T07:16:02.072Z,100095.63
2023-03-30T07:19:09.488Z,100095.03
2023-03-30T07:22:12.565Z,100089.59
2023-03-30T07:25:16.451Z,100080.34
2023-03-30T07:29:16.054Z,100087.88
2023-03-30T07:32:28.223Z,100087.66
2023-03-30T07:35:32.640Z,100093.41
2023-03-30T07:38:38.617Z,100077.47
2023-03-30T07:41:41.819Z,100068.16
2023-03-30T07:44:44.916Z,100078.28
2023-03-30T07:47:53.057Z,100079.78
2023-03-30T07:51:03.468Z,100070.53
2023-03-30T07:54:10.245Z,100071.88
2023-03-30T07:57:26.581Z,100064.72
2023-03-30T08:00:30.846Z,100067.38
2023-03-30T08:04:07.377Z,100058.75
2023-03-30T08:07:14.389Z,100062.72
2023-03-30T08:10:17.538Z,100061.94
2023-03-30T08:13:22.089Z,100070.22
2023-03-30T08:16:25.392Z,100056.91
2023-03-30T08:19:28.755Z,100052.94
2023-03-30T08:22:36.202Z,100059.28
2023-03-30T08:25:39.770Z,100047.72
2023-03-30T08:28:42.904Z,100036.84
2023-03-30T08:31:46.630Z,100033.25
2023-03-30T08:34:49.733Z,100017.88
2023-03-30T08:37:54.586Z,100025.81
2023-03-30T08:40:57.513Z,100014.06
2023-03-30T08:44:02.739Z,100020.16
2023-03-30T08:47:14.007Z,100020.00
2023-03-30T08:50:20.026Z,100020.94
2023-03-30T08:53:24.381Z,100028.34
2023-03-30T08:56:32.772Z,100019.28
2023-03-30T08:59:45.521Z,100013.56
2023-03-30T09:02:52.875Z,100014.28
2023-03-30T09:06:02.034Z,100004.06
2023-03-30T09:09:06.882Z,100001.22
2023-03-30T09:12:21.799Z,100014.66
2023-03-30T09:15:31.944Z,100014.75
2023-03-30T09:18:38.887Z,100018.25
2023-03-30T09:21:42.408Z,100010.88
2023-03-30T09:24:47.251Z,100003.38
2023-03-30T09:28:00.684Z,100005.19
2023-03-30T09:31:10.875Z,100003.91
2023-03-30T09:34:27.236Z,99997.47
2023-03-30T09:37:30.263Z,99993.59
2023-03-30T09:40:57.124Z,100008.50
2023-03-30T09:44:01.824Z,100007.72
2023-03-30T09:47:24.440Z,100011.44
2023-03-30T09:50:30.081Z,100017.75
2023-03-30T09:53:36.602Z,100021.06
2023-03-30T09:56:47.690Z,100018.78
2023-03-30T09:59:52.829Z,100018.78
2023-03-30T10:02:57.982Z,100007.00
2023-03-30T10:06:04.914Z,100018.84
2023-03-30T10:09:13.144Z,100007.50
2023-03-30T10:12:18.033Z,100019.81
2023-03-30T10:15:24.577Z,100024.38
2023-03-30T10:18:34.770Z,100031.06
2023-03-30T10:21:41.052Z,100038.09
2023-03-30T10:24:52.088Z,100033.03
2023-03-30T10:28:02.932Z,100033.41
2023-03-30T10:31:15.491Z,100035.34
2023-03-30T10:34:22.229Z,100027.03
2023-03-30T10:37:32.017Z,100025.78
2023-03-30T10:40:38.514Z,100024.47
2023-03-30T10:43:43.761Z,100023.00
2023-03-30T10:46:48.077Z,100023.50
2023-03-30T10:50:04.238Z,100013.19
2023-03-30T10:53:27.334Z,100013.06
2023-03-30T10:56:40.024Z,100004.19
2023-03-30T11:00:00.175Z,100003.25
2023-03-30T11:03:12.952Z,100006.72
2023-03-30T11:06:20.925Z,100008.13
2023-03-30T11:09:29.955Z,99994.63
2023-03-30T11:12:41.419Z,99995.47
2023-03-30T11:15:52.064Z,100004.16
2023-03-30T11:19:00.736Z,100000.84
2023-03-30T11:22:13.281Z,99994.59
2023-03-30T11:25:23.277Z,99997.56
2023-03-30T11:28:50.457Z,99992.34
2023-03-30T11:35:33.298Z,99992.13
2023-03-30T11:38:47.171Z,99999.53
2023-03-30T11:41:57.436Z,99991.00
2023-03-30T11:45:22.338Z,99977.53
2023-03-30T11:48:53.852Z,99966.97
2023-03-30T11:52:13.642Z,99954.19
2023-03-30T11:55:29.714Z,99952.41
2023-03-30T11:58:37.374Z,99955.47
2023-03-30T12:02:02.779Z,99943.16
2023-03-30T12:05:16.524Z,99934.69
2023-03-30T12:08:42.159Z,99934.94
2023-03-30T12:11:50.449Z,99931.88
2023-03-30T12:15:05.800Z,99918.66
2023-03-30T12:18:26.492Z,99905.56
2023-03-30T12:21:43.763Z,99895.03
2023-03-30T12:24:53.028Z,99895.97
2023-03-30T12:28:05.401Z,99890.69
2023-03-30T12:31:08.630Z,99877.75
2023-03-30T12:34:11.807Z,99873.88
2023-03-30T12:37:21.157Z,99866.41
2023-03-30T12:40:29.521Z,99869.47
2023-03-30T12:44:00.318Z,99854.19
2023-03-30T12:47:36.116Z,99841.63
2023-03-30T12:50:47.539Z,99826.63
2023-03-30T12:54:14.413Z,99824.78
2023-03-30T12:57:34.482Z,99820.50
2023-03-30T13:01:02.530Z,99813.50
2023-03-30T13:04:10.668Z,99809.47
2023-03-30T13:07:18.628Z,99796.69
2023-03-30T13:10:41.649Z,99803.25
2023-03-30T13:14:00.180Z,99788.00
2023-03-30T13:17:17.325Z,99792.88
2023-03-30T13:23:34.137Z,99768.06
2023-03-30T13:26:43.907Z,99768.88
2023-03-30T13:29:57.038Z,99781.38
2023-03-30T13:33:12.659Z,99778.44
2023-03-30T13:36:26.097Z,99771.75
2023-03-30T13:39:41.794Z,99779.16
2023-03-30T13:43:07.778Z,99778.25
2023-03-30T13:46:50.204Z,99777.44
2023-03-30T13:50:04.388Z,99778.88
2023-03-30T13:53:18.583Z,99794.88
2023-03-30T13:56:27.250Z,99818.22
2023-03-30T13:59:34.126Z,99853.41
2023-03-30T14:02:41.593Z,99917.69
2023-03-30T14:05:45.248Z,99967.31
2023-03-30T14:08:50.635Z,99960.94
2023-03-30T14:11:56.225Z,99957.34
2023-03-30T14:15:04.126Z,99920.44
2023-03-30T14:18:22.614Z,99934.44
2023-03-30T14:21:25.678Z,99937.22
2023-03-30T14:24:33.501Z,99915.34
2023-03-30T14:27:39.153Z,99914.81
2023-03-30T14:30:51.227Z,99908.47
2023-03-30T14:33:56.064Z,99908.34
2023-03-30T14:37:02.204Z,99897.88
2023-03-30T14:40:16.937Z,99883.03
2023-03-30T14:43:25.513Z,99870.38
2023-03-30T14:46:37.162Z,99861.31
2023-03-30T14:49:44.785Z,99855.13
2023-03-30T14:52:48.687Z,99849.47
2023-03-30T14:55:56.943Z,99857.31
2023-03-30T14:59:00.705Z,99870.06
2023-03-30T15:02:05.709Z,99868.38
2023-03-30T15:05:12.093Z,99873.34
2023-03-30T15:08:22.962Z,99878.72
2023-03-30T15:11:28.626Z,99869.91
2023-03-30T15:14:38.286Z,99865.38
2023-03-30T15:17:47.736Z,99873.88
2023-03-30T15:21:00.533Z,99873.31
2023-03-30T15:24:19.320Z,99877.97
2023-03-30T15:27:24.129Z,99884.16
2023-03-30T15:30:31.401Z,99883.50
2023-03-30T15:33:42.949Z,99890.94
2023-03-30T15:36:55.878Z,99885.72
2023-03-30T15:40:07.350Z,99899.63
2023-03-30T15:43:20.736Z,99902.78
2023-03-30T15:46:24.613Z,99903.34
2023-03-30T15:49:31.802Z,99903.09
2023-03-30T15:52:38.961Z,99901.31
2023-03-30T15:55:45.397Z,99908.88
2023-03-30T15:58:50.420Z,99914.94
2023-03-30T16:01:57.785Z,99907.50
2023-03-30T16:05:18.701Z,99913.25
2023-03-30T16:08:23.892Z,99911.63
2023-03-30T16:11:27.751Z,99911.09
2023-03-30T16:14:33.407Z,99910.28
2023-03-30T16:17:37.468Z,99911.34
2023-03-30T16:20:40.962Z,99921.53
2023-03-30T16:23:48.158Z,99910.81
2023-03-30T16:26:51.258Z,99915.19
2023-03-30T16:29:54.362Z,99909.16
2023-03-30T16:33:00.773Z,99920.28
2023-03-30T16:36:10.118Z,99922.31
2023-03-30T16:39:20.337Z,99924.78
2023-03-30T16:42:26.892Z,99918.88
2023-03-30T16:45:30.343Z,99928.66
2023-03-30T16:48:33.315Z,99935.78
2023-03-30T16:51:43.912Z,99923.13
2023-03-30T16:54:48.738Z,99931.69
2023-03-30T16:57:54.805Z,99929.22
2023-03-30T17:01:03.932Z,99931.13
2023-03-30T17:04:09.635Z,99940.75
2023-03-30T17:07:12.662Z,99928.66
2023-03-30T17:10:25.392Z,99935.53
2023-03-30T17:13:28.983Z,99938.28
2023-03-30T17:16:36.858Z,99945.16
2023-03-30T17:19:40.202Z,99951.75
2023-03-30T17:22:45.208Z,99952.28
2023-03-30T17:25:50.863Z,99955.88
2023-03-30T17:28:53.998Z,99958.78
2023-03-30T17:31:57.076Z,99964.97
2023-03-30T17:35:00.361Z,99958.38
2023-03-30T17:38:03.739Z,99969.22
2023-03-30T17:41:12.850Z,99971.28
2023-03-30T17:44:16.267Z,99983.66
2023-03-30T17:47:19.545Z,99987.91
2023-03-30T17:50:27.292Z,99990.22
2023-03-30T17:53:31.514Z,100000.69
2023-03-30T17:56:38.904Z,99996.81
2023-03-30T17:59:42.102Z,99998.47
2023-03-30T18:02:45.636Z,99996.38
2023-03-30T18:05:50.500Z,100002.03
2023-03-30T18:08:53.477Z,99994.16
2023-03-30T18:11:57.825Z,100000.63
2023-03-30T18:15:00.763Z,99995.00
2023-03-30T18:18:09.087Z,99997.31
2023-03-30T18:21:20.413Z,99996.44
2023-03-30T18:24:23.505Z,99988.84
2023-03-30T18:27:52.755Z,99990.63
2023-03-30T18:31:03.946Z,99983.22
2023-03-30T18:34:07.362Z,99986.22
2023-03-30T18:37:11.408Z,99985.09
2023-03-30T18:40:24.475Z,99987.59
2023-03-30T18:43:52.778Z,99998.53
2023-03-30T18:46:56.999Z,99994.25
2023-03-30T18:50:04.674Z,100006.47
2023-03-30T18:53:11.915Z,100015.94
2023-03-30T18:56:14.896Z,100024.69
2023-03-30T18:59:22.955Z,100023.22
2023-03-30T19:02:26.350Z,100024.03
2023-03-30T19:05:33.124Z,100029.56
2023-03-30T19:08:36.279Z,100021.34
2023-03-30T19:11:39.348Z,100015.31
2023-03-30T19:14:43.598Z,100026.28
2023-03-30T19:17:47.181Z,100046.31
2023-03-30T19:20:51.903Z,100071.81
2023-03-30T19:23:56.480Z,100083.63
2023-03-30T19:26:59.807Z,100080.84
2023-03-30T19:30:05.007Z,100101.81
2023-03-30T19:33:11.912Z,100093.69
2023-03-30T19:36:15.042Z,100117.31
2023-03-30T19:39:18.010Z,100134.09
2023-03-30T19:42:22.090Z,100134.28
2023-03-30T19:45:26.608Z,100128.25
2023-03-30T19:48:30.069Z,100141.53
2023-03-30T19:51:33.118Z,100137.06
2023-03-30T19:54:36.208Z,100126.31
2023-03-30T19:57:41.986Z,100112.00
2023-03-30T20:00:49.396Z,100102.09
2023-03-30T20:03:52.476Z,100095.47
2023-03-30T20:06:56.187Z,100103.72
2023-03-30T20:09:59.218Z,100110.84
2023-03-30T20:13:02.284Z,100107.28
2023-03-30T20:16:07.172Z,100104.22
2023-03-30T20:19:26.522Z,100105.28
2023-03-30T20:22:30.026Z,100103.41
2023-03-30T20:25:33.097Z,100113.34
2023-03-30T20:28:36.242Z,100121.66
2023-03-30T20:31:42.693Z,100118.81
2023-03-30T20:34:46.772Z,100113.84
2023-03-30T20:37:49.789Z,100113.72
2023-03-30T20:40:56.729Z,100126.50
2023-03-30T20:44:03.254Z,100114.91
2023-03-30T20:47:08.879Z,100128.97
2023-03-30T20:50:12.384Z,100130.03
2023-03-30T20:53:17.021Z,100123.66
2023-03-30T20:56:20.722Z,100117.00
2023-03-30T20:59:24.037Z,100117.75
2023-03-30T21:02:30.256Z,100113.47
2023-03-30T21:05:34.621Z,100113.59
2023-03-30T21:08:38.114Z,100111.94
2023-03-30T21:11:41.171Z,100110.41
2023-03-30T21:14:45.852Z,100102.34
2023-03-30T21:17:50.280Z,100095.50
2023-03-30T21:20:53.732Z,100087.91
2023-03-30T21:23:57.931Z,100097.63
2023-03-30T21:27:03.327Z,100097.03
2023-03-30T21:30:10.216Z,100096.47
2023-03-30T21:33:17.485Z,100096.94
2023-03-30T21:36:21.264Z,100090.31
2023-03-30T21:39:28.097Z,100092.19
2023-03-30T21:42:31.309Z,100089.34
2023-03-30T21:45:34.253Z,100080.03
2023-03-30T21:48:41.171Z,100076.59
2023-03-30T21:51:44.185Z,100075.84
2023-03-30T21:54:47.125Z,100076.09
2023-03-30T21:57:50.178Z,100070.91
2023-03-30T22:01:08.927Z,100073.03
2023-03-30T22:04:16.002Z,100065.44
2023-03-30T22:07:19.147Z,100060.97
2023-03-30T22:10:22.501Z,100060.59
2023-03-30T22:13:27.672Z,100059.50
2023-03-30T22:16:33.230Z,100057.09
2023-03-30T22:19:38.774Z,100057.09
2023-03-30T22:22:41.821Z,100049.19
2023-03-30T22:25:44.883Z,100058.44
2023-03-30T22:28:48.034Z,100042.94
2023-03-30T22:31:56.038Z,100038.31
2023-03-30T22:35:00.388Z,100041.97
2023-03-30T22:38:03.419Z,100040.59
2023-03-30T22:41:10.257Z,100040.34
2023-03-30T22:44:13.234Z,100035.72
2023-03-30T22:47:16.556Z,100039.50
2023-03-30T22:50:21.952Z,100036.09
2023-03-30T22:53:24.949Z,100040.19
2023-03-30T22:56:30.275Z,100039.38
2023-03-30T22:59:35.961Z,100033.66
2023-03-30T23:02:39.596Z,100023.97
2023-03-30T23:05:53.829Z,100033.25
2023-03-30T23:08:57.366Z,100021.56
2023-03-30T23:12:00.740Z,100020.59
2023-03-30T23:15:04.768Z,100026.38
2023-03-30T23:18:08.028Z,100032.97
2023-03-30T23:21:13.969Z,100021.88
2023-03-30T23:24:17.208Z,100017.38
2023-03-30T23:27:20.234Z,100013.09
2023-03-30T23:30:26.023Z,100013.81
2023-03-30T23:33:29.550Z,100008.81
2023-03-30T23:36:34.855Z,100012.69
2023-03-30T23:39:37.961Z,100005.44
2023-03-30T23:42:40.908Z,100015.63
2023-03-30T23:45:44.283Z,100010.19
2023-03-30T23:48:47.332Z,100012.50
2023-03-30T23:51:51.771Z,100006.34
2023-03-30T23:54:54.967Z,100004.69
2023-03-30T23:57:57.949Z,100007.88
